createdAt,value
2023-01-23T00:01:38.937Z,56.15
2023-01-23T00:04:07.281Z,56.28
2023-01-23T00:06:35.695Z,58.67
2023-01-23T00:09:04.872Z,57.47
2023-01-23T00:11:34.957Z,57.28
2023-01-23T00:14:03.717Z,56.42
2023-01-23T00:16:33.971Z,55.88
2023-01-23T00:19:02.634Z,57.35
2023-01-23T00:21:32.023Z,57.45
2023-01-23T00:24:02.792Z,57.40
2023-01-23T00:26:33.970Z,55.75
2023-01-23T00:29:05.071Z,57.92
2023-01-23T00:31:39.098Z,55.85
2023-01-23T00:34:11.799Z,59.75
2023-01-23T00:36:42.268Z,58.42
2023-01-23T00:39:16.686Z,55.70
2023-01-23T00:41:45.828Z,56.15
2023-01-23T00:44:15.836Z,59.15
2023-01-23T00:46:44.347Z,56.33
2023-01-23T00:49:12.634Z,61.33
2023-01-23T00:51:41.195Z,67.25
2023-01-23T00:54:09.589Z,61.05
2023-01-23T00:56:37.827Z,59.28
2023-01-23T00:59:06.178Z,61.22
2023-01-23T01:01:37.327Z,62.67
2023-01-23T01:04:05.929Z,69.20
2023-01-23T01:06:34.353Z,71.75
2023-01-23T01:09:02.834Z,65.57
2023-01-23T01:11:31.380Z,64.10
2023-01-23T01:14:00.412Z,66.72
2023-01-23T01:16:28.958Z,66.90
2023-01-23T01:18:58.705Z,67.13
2023-01-23T01:21:27.412Z,62.97
2023-01-23T01:23:55.703Z,65.43
2023-01-23T01:26:26.264Z,70.05
2023-01-23T01:28:54.855Z,65.93
2023-01-23T01:31:23.349Z,70.90
2023-01-23T01:33:51.627Z,65.30
2023-01-23T01:36:24.186Z,69.80
2023-01-23T01:38:52.608Z,68.18
2023-01-23T01:41:21.149Z,69.00
2023-01-23T01:43:49.547Z,69.85
2023-01-23T01:46:21.477Z,71.47
2023-01-23T01:48:56.462Z,70.25
2023-01-23T01:51:31.018Z,75.70
2023-01-23T01:54:05.499Z,75.28
2023-01-23T01:56:38.796Z,79.05
2023-01-23T01:59:08.258Z,74.13
2023-01-23T02:01:37.007Z,70.78
2023-01-23T02:04:06.385Z,77.22
2023-01-23T02:06:36.341Z,77.35
2023-01-23T02:09:08.809Z,76.18
2023-01-23T02:11:37.449Z,73.85
2023-01-23T02:14:05.633Z,75.97
2023-01-23T02:16:41.189Z,73.50
2023-01-23T02:19:19.706Z,74.72
2023-01-23T02:21:54.190Z,73.68
2023-01-23T02:24:29.084Z,75.25
2023-01-23T02:26:58.879Z,77.43
2023-01-23T02:29:27.799Z,74.65
2023-01-23T02:31:56.883Z,70.70
2023-01-23T02:34:26.229Z,73.28
2023-01-23T02:36:54.647Z,69.95
2023-01-23T02:39:22.951Z,69.40
2023-01-23T02:41:53.146Z,72.47
2023-01-23T02:44:26.637Z,74.95
2023-01-23T02:46:55.111Z,73.35
2023-01-23T02:49:24.420Z,73.07
2023-01-23T02:51:53.779Z,72.28
2023-01-23T02:54:22.731Z,75.65
2023-01-23T02:56:51.710Z,75.22
2023-01-23T02:59:37.905Z,74.65
2023-01-23T03:02:08.197Z,74.65
2023-01-23T03:04:36.692Z,76.15
2023-01-23T03:07:05.304Z,71.63
2023-01-23T03:09:33.677Z,77.53
2023-01-23T03:12:02.020Z,72.32
2023-01-23T03:14:32.578Z,79.50
2023-01-23T03:17:01.022Z,79.13
2023-01-23T03:19:31.300Z,81.43
2023-01-23T03:21:59.946Z,79.85
2023-01-23T03:24:28.609Z,80.95
2023-01-23T03:26:56.956Z,83.65
2023-01-23T03:29:44.240Z,82.47
2023-01-23T03:32:15.119Z,82.15
2023-01-23T03:34:45.809Z,86.82
2023-01-23T03:37:15.227Z,88.65
2023-01-23T03:40:00.934Z,85.18
2023-01-23T03:42:29.392Z,84.30
2023-01-23T03:44:57.696Z,83.65
2023-01-23T03:47:26.863Z,83.97
2023-01-23T03:49:56.585Z,84.32
2023-01-23T03:52:25.474Z,82.28
2023-01-23T03:54:54.150Z,89.32
2023-01-23T03:57:22.358Z,83.07
2023-01-23T03:59:50.553Z,88.40
2023-01-23T04:02:19.497Z,89.68
2023-01-23T04:04:48.061Z,88.50
2023-01-23T04:07:17.689Z,88.18
2023-01-23T04:09:46.390Z,85.60
2023-01-23T04:12:14.806Z,89.72
2023-01-23T04:14:43.139Z,87.38
2023-01-23T04:17:13.052Z,90.13
2023-01-23T04:19:41.279Z,87.75
2023-01-23T04:22:10.038Z,95.00
2023-01-23T04:24:39.935Z,91.07
2023-01-23T04:27:08.107Z,88.20
2023-01-23T04:29:36.301Z,94.50
2023-01-23T04:32:05.015Z,88.18
2023-01-23T04:34:33.418Z,92.35
2023-01-23T04:37:01.569Z,88.50
2023-01-23T04:39:29.970Z,93.38
2023-01-23T04:41:59.669Z,96.88
2023-01-23T04:44:27.965Z,94.78
2023-01-23T04:46:56.501Z,95.65
2023-01-23T04:49:25.560Z,93.93
2023-01-23T04:51:54.062Z,95.50
2023-01-23T04:54:23.500Z,94.88
2023-01-23T04:56:51.714Z,91.47
2023-01-23T04:59:21.687Z,91.30
2023-01-23T05:01:50.465Z,85.85
2023-01-23T05:04:18.721Z,90.65
2023-01-23T05:06:47.014Z,92.30
2023-01-23T05:09:15.599Z,87.07
2023-01-23T05:11:43.877Z,85.47
2023-01-23T05:14:12.310Z,89.38
2023-01-23T05:16:42.454Z,85.60
2023-01-23T05:19:10.711Z,92.10
2023-01-23T05:21:38.970Z,88.10
2023-01-23T05:24:07.978Z,85.43
2023-01-23T05:26:36.219Z,86.15
2023-01-23T05:29:04.606Z,95.05
2023-01-23T05:31:33.757Z,89.30
2023-01-23T05:34:03.710Z,92.45
2023-01-23T05:36:31.943Z,86.20
2023-01-23T05:39:00.367Z,90.63
2023-01-23T05:41:28.720Z,86.57
2023-01-23T05:43:57.057Z,91.07
2023-01-23T05:46:25.604Z,88.18
2023-01-23T05:48:54.063Z,84.85
2023-01-23T05:51:31.619Z,85.78
2023-01-23T05:54:00.141Z,82.43
2023-01-23T05:56:28.713Z,82.35
2023-01-23T05:58:57.073Z,81.70
2023-01-23T06:01:25.577Z,85.63
2023-01-23T06:03:53.932Z,92.25
2023-01-23T06:06:23.937Z,86.20
2023-01-23T06:08:52.418Z,92.00
2023-01-23T06:11:20.634Z,93.50
2023-01-23T06:13:49.095Z,97.53
2023-01-23T06:16:17.784Z,97.72
2023-01-23T06:18:46.063Z,93.13
2023-01-23T06:21:15.526Z,92.05
2023-01-23T06:23:45.855Z,89.65
2023-01-23T06:26:14.878Z,94.63
2023-01-23T06:28:43.183Z,95.72
2023-01-23T06:31:11.760Z,89.90
2023-01-23T06:33:40.071Z,93.57
2023-01-23T06:36:09.230Z,90.43
2023-01-23T06:38:37.702Z,98.75
2023-01-23T06:41:07.505Z,94.30
2023-01-23T06:43:36.164Z,92.15
2023-01-23T06:46:04.449Z,95.35
2023-01-23T06:48:32.583Z,94.95
2023-01-23T06:51:02.029Z,89.18
2023-01-23T06:53:30.796Z,97.63
2023-01-23T06:56:01.517Z,94.65
2023-01-23T06:58:31.414Z,86.20
2023-01-23T07:01:00.047Z,93.28
2023-01-23T07:03:28.348Z,97.68
2023-01-23T07:05:56.749Z,92.60
2023-01-23T07:08:24.934Z,94.00
2023-01-23T07:10:53.391Z,97.85
2023-01-23T07:13:22.093Z,97.10
2023-01-23T07:15:51.694Z,94.90
2023-01-23T07:18:19.876Z,92.30
2023-01-23T07:20:49.946Z,99.93
2023-01-23T07:23:18.452Z,94.15
2023-01-23T07:25:46.687Z,96.72
2023-01-23T07:28:15.653Z,100.93
2023-01-23T07:30:43.876Z,96.15
2023-01-23T07:33:13.724Z,100.95
2023-01-23T07:35:42.514Z,93.85
2023-01-23T07:38:11.451Z,102.25
2023-01-23T07:40:42.603Z,105.38
2023-01-23T07:43:11.871Z,110.28
2023-01-23T07:45:40.037Z,105.65
2023-01-23T07:48:08.260Z,103.00
2023-01-23T07:50:38.447Z,100.40
2023-01-23T07:53:07.247Z,98.15
2023-01-23T07:55:36.051Z,100.97
2023-01-23T07:58:04.830Z,104.90
2023-01-23T08:00:33.258Z,100.93
2023-01-23T08:03:01.753Z,105.55
2023-01-23T08:05:30.594Z,101.90
2023-01-23T08:08:12.536Z,113.35
2023-01-23T08:10:41.755Z,102.00
2023-01-23T08:13:10.040Z,105.38
2023-01-23T08:15:39.374Z,107.75
2023-01-23T08:18:08.243Z,102.68
2023-01-23T08:20:36.552Z,100.00
2023-01-23T08:23:06.440Z,104.05
2023-01-23T08:25:35.270Z,102.82
2023-01-23T08:28:03.532Z,101.05
2023-01-23T08:30:31.962Z,99.38
2023-01-23T08:33:01.467Z,98.65
2023-01-23T08:35:29.675Z,100.13
2023-01-23T08:37:58.192Z,99.38
2023-01-23T08:40:28.084Z,97.00
2023-01-23T08:42:57.449Z,97.45
2023-01-23T08:45:26.247Z,100.53
2023-01-23T08:47:54.726Z,98.75
2023-01-23T08:50:23.127Z,94.22
2023-01-23T08:52:51.516Z,96.53
2023-01-23T08:55:20.085Z,92.82
2023-01-23T08:57:49.704Z,92.28
2023-01-23T09:00:19.076Z,89.47
2023-01-23T09:02:48.222Z,89.75
2023-01-23T09:05:16.604Z,96.53
2023-01-23T09:07:44.872Z,98.97
2023-01-23T09:10:14.163Z,93.13
2023-01-23T09:12:43.306Z,93.30
2023-01-23T09:15:13.487Z,92.60
2023-01-23T09:17:41.950Z,92.25
2023-01-23T09:20:11.717Z,96.88
2023-01-23T09:22:39.890Z,96.70
2023-01-23T09:25:09.584Z,93.05
2023-01-23T09:27:38.042Z,93.30
2023-01-23T09:30:07.544Z,93.50
2023-01-23T09:32:37.415Z,95.68
2023-01-23T09:35:06.136Z,93.97
2023-01-23T09:38:02.133Z,95.53
2023-01-23T09:40:33.199Z,93.93
2023-01-23T09:43:10.099Z,94.70
2023-01-23T09:45:40.774Z,97.68
2023-01-23T09:48:21.324Z,97.30
2023-01-23T09:50:57.403Z,91.80
2023-01-23T09:53:36.952Z,94.95
2023-01-23T09:56:14.535Z,93.53
2023-01-23T09:58:48.828Z,90.43
2023-01-23T10:01:17.723Z,92.60
2023-01-23T10:03:47.325Z,90.85
2023-01-23T10:06:24.170Z,90.88
2023-01-23T10:09:29.089Z,97.15
2023-01-23T10:12:08.037Z,87.68
2023-01-23T10:15:06.484Z,91.25
2023-01-23T10:17:43.905Z,93.90
2023-01-23T10:20:39.442Z,85.32
2023-01-23T10:23:14.250Z,93.45
2023-01-23T10:25:43.030Z,87.55
2023-01-23T10:28:25.297Z,83.75
2023-01-23T10:30:59.104Z,80.00
2023-01-23T10:33:37.749Z,79.13
2023-01-23T10:36:23.679Z,81.07
2023-01-23T10:39:00.574Z,83.45
2023-01-23T10:41:29.034Z,79.65
2023-01-23T10:43:58.130Z,79.32
2023-01-23T10:46:33.051Z,79.13
2023-01-23T10:49:02.777Z,77.95
2023-01-23T10:51:36.014Z,79.22
2023-01-23T10:54:16.967Z,78.18
2023-01-23T10:56:58.454Z,77.28
2023-01-23T10:59:35.587Z,74.97
2023-01-23T11:02:22.705Z,70.50
2023-01-23T11:04:52.949Z,74.50
2023-01-23T11:07:24.695Z,71.57
2023-01-23T11:09:57.260Z,67.65
2023-01-23T11:12:27.327Z,67.68
2023-01-23T11:15:21.094Z,67.95
2023-01-23T11:17:50.675Z,68.97
2023-01-23T11:20:28.116Z,70.55
2023-01-23T11:23:06.731Z,67.88
2023-01-23T11:25:38.031Z,63.58
2023-01-23T11:28:23.710Z,66.18
2023-01-23T11:31:12.188Z,64.75
2023-01-23T11:33:48.024Z,63.15
2023-01-23T11:36:42.649Z,59.92
2023-01-23T11:39:22.167Z,55.60
2023-01-23T11:41:50.622Z,59.33
2023-01-23T11:44:23.009Z,59.33
2023-01-23T11:47:27.065Z,60.53
2023-01-23T11:50:12.711Z,59.35
2023-01-23T11:52:50.712Z,59.35
2023-01-23T11:55:53.525Z,60.72
2023-01-23T11:58:48.979Z,61.33
2023-01-23T12:01:24.896Z,58.70
2023-01-23T12:04:28.981Z,53.47
2023-01-23T12:07:22.887Z,56.40
2023-01-23T12:10:04.679Z,60.95
2023-01-23T12:13:07.700Z,60.08
2023-01-23T12:15:45.154Z,63.15
2023-01-23T12:18:24.256Z,57.95
2023-01-23T12:21:04.555Z,61.30
2023-01-23T12:23:48.915Z,58.90
2023-01-23T12:26:21.038Z,57.47
2023-01-23T12:29:22.448Z,59.97
2023-01-23T12:32:17.937Z,57.92
2023-01-23T12:35:13.423Z,62.20
2023-01-23T12:37:57.737Z,61.28
2023-01-23T12:40:32.987Z,63.03
2023-01-23T12:43:06.412Z,64.15
2023-01-23T12:45:38.996Z,64.40
2023-01-23T12:48:12.832Z,61.90
2023-01-23T12:50:46.741Z,63.08
2023-01-23T12:53:17.577Z,66.00
2023-01-23T12:55:58.671Z,64.85
2023-01-23T12:58:29.501Z,65.50
2023-01-23T13:01:19.521Z,69.80
2023-01-23T13:04:20.967Z,62.53
2023-01-23T13:07:02.314Z,62.90
2023-01-23T13:09:40.340Z,69.25
2023-01-23T13:12:22.180Z,66.10
2023-01-23T13:15:13.322Z,63.75
2023-01-23T13:17:48.806Z,65.22
2023-01-23T13:20:41.850Z,64.40
2023-01-23T13:23:24.728Z,60.70
2023-01-23T13:26:37.550Z,64.13
2023-01-23T13:29:07.634Z,64.63
2023-01-23T13:31:42.088Z,67.18
2023-01-23T13:34:39.640Z,60.45
2023-01-23T13:37:47.596Z,62.35
2023-01-23T13:40:20.433Z,69.82
2023-01-23T13:42:48.868Z,65.00
2023-01-23T13:45:31.473Z,64.20
2023-01-23T14:22:38.600Z,62.53
2023-01-23T14:25:17.598Z,55.80
2023-01-23T14:27:54.481Z,57.00
2023-01-23T14:30:26.926Z,55.55
2023-01-23T14:32:58.413Z,47.03
2023-01-23T14:35:28.637Z,53.80
2023-01-23T14:38:00.358Z,51.83
2023-01-23T14:40:37.292Z,48.58
2023-01-23T14:43:19.817Z,52.57
2023-01-23T14:45:50.588Z,47.90
2023-01-23T14:48:23.088Z,48.22
2023-01-23T14:50:51.388Z,49.92
2023-01-23T14:53:19.770Z,49.58
2023-01-23T14:55:50.904Z,52.20
2023-01-23T14:58:24.162Z,50.45
2023-01-23T15:00:54.321Z,50.60
2023-01-23T15:03:40.624Z,50.15
2023-01-23T15:06:13.472Z,54.05
2023-01-23T15:08:42.580Z,56.03
2023-01-23T15:11:13.413Z,56.15
2023-01-23T15:13:45.403Z,62.08
2023-01-23T15:16:19.040Z,59.17
2023-01-23T15:21:32.147Z,63.13
2023-01-23T15:24:16.569Z,64.25
2023-01-23T15:26:46.251Z,61.90
2023-01-23T15:29:21.310Z,63.25
2023-01-23T15:31:51.351Z,67.25
2023-01-23T15:34:24.860Z,65.00
2023-01-23T15:36:56.033Z,67.80
2023-01-23T15:39:27.559Z,69.25
2023-01-23T15:41:58.794Z,69.20
2023-01-23T15:44:29.875Z,69.97
2023-01-23T15:47:01.148Z,64.07
2023-01-23T15:49:32.090Z,73.68
2023-01-23T15:52:03.026Z,70.30
2023-01-23T15:54:36.286Z,68.80
2023-01-23T15:57:08.209Z,66.25
2023-01-23T15:59:38.159Z,65.13
2023-01-23T16:02:08.224Z,65.82
2023-01-23T16:04:41.127Z,67.45
2023-01-23T16:07:16.755Z,68.40
2023-01-23T16:09:47.697Z,67.25
2023-01-23T16:12:18.665Z,67.80
2023-01-23T16:14:47.433Z,67.18
2023-01-23T16:17:17.265Z,66.82
2023-01-23T16:19:47.474Z,66.03
2023-01-23T16:22:19.300Z,62.83
2023-01-23T16:24:47.614Z,65.88
2023-01-23T16:27:19.087Z,62.25
2023-01-23T16:29:49.798Z,62.15
2023-01-23T16:32:18.295Z,59.60
2023-01-23T16:34:48.092Z,64.00
2023-01-23T16:37:19.474Z,57.33
2023-01-23T16:39:48.709Z,60.83
2023-01-23T16:42:23.149Z,59.03
2023-01-23T16:44:52.061Z,51.78
2023-01-23T16:47:20.317Z,50.00
2023-01-23T16:49:53.285Z,53.35
2023-01-23T16:52:26.329Z,53.25
2023-01-23T16:54:55.996Z,52.60
2023-01-23T16:57:25.082Z,50.20
2023-01-23T16:59:56.477Z,47.78
2023-01-23T17:02:29.621Z,54.03
2023-01-23T17:04:59.699Z,52.30
2023-01-23T17:07:27.929Z,52.47
2023-01-23T17:09:56.480Z,49.72
2023-01-23T17:12:29.569Z,56.15
2023-01-23T17:14:58.967Z,49.17
2023-01-23T17:17:32.472Z,50.35
2023-01-23T17:20:05.391Z,50.92
2023-01-23T17:22:39.840Z,50.80
2023-01-23T17:25:16.872Z,52.75
2023-01-23T17:27:50.120Z,50.47
2023-01-23T17:30:26.206Z,49.17
2023-01-23T17:32:57.957Z,49.97
2023-01-23T17:35:31.288Z,47.67
2023-01-23T17:38:00.081Z,48.47
2023-01-23T17:40:28.423Z,78.70
2023-01-23T17:42:56.772Z,53.40
2023-01-23T17:45:27.677Z,58.33
2023-01-23T17:47:56.892Z,46.35
2023-01-23T17:50:27.728Z,43.10
2023-01-23T17:52:56.406Z,45.88
2023-01-23T17:55:28.415Z,43.65
2023-01-23T17:57:56.633Z,46.88
2023-01-23T18:00:27.298Z,41.75
2023-01-23T18:02:59.199Z,41.40
2023-01-23T18:05:29.722Z,41.03
2023-01-23T18:07:57.917Z,43.03
2023-01-23T18:10:29.218Z,43.63
2023-01-23T18:13:09.890Z,45.85
2023-01-23T18:15:43.974Z,45.30
2023-01-23T18:18:22.782Z,39.30
2023-01-23T18:20:54.823Z,40.85
2023-01-23T18:23:24.417Z,42.90
2023-01-23T18:26:04.101Z,46.25
2023-01-23T18:28:43.126Z,43.88
2023-01-23T18:31:17.413Z,44.65
2023-01-23T18:34:01.940Z,46.40
2023-01-23T18:36:41.825Z,43.67
2023-01-23T18:39:41.016Z,46.70
2023-01-23T18:42:17.665Z,48.22
2023-01-23T18:44:53.958Z,58.47
2023-01-23T18:47:22.495Z,61.08
2023-01-23T18:49:51.190Z,46.78
2023-01-23T18:52:26.033Z,52.90
2023-01-23T18:54:59.737Z,48.55
2023-01-23T18:57:50.708Z,50.83
2023-01-23T19:00:24.849Z,52.63
2023-01-23T19:02:57.338Z,47.22
2023-01-23T19:05:30.877Z,50.92
2023-01-23T19:08:02.382Z,48.35
2023-01-23T19:10:46.725Z,48.70
2023-01-23T19:13:21.102Z,53.72
2023-01-23T19:15:59.857Z,49.65
2023-01-23T19:18:46.088Z,52.22
2023-01-23T19:21:18.060Z,54.95
2023-01-23T19:23:55.075Z,52.35
2023-01-23T19:26:25.401Z,55.97
2023-01-23T19:28:54.191Z,60.20
2023-01-23T19:31:25.547Z,50.65
2023-01-23T19:33:54.355Z,46.22
2023-01-23T19:36:23.586Z,47.53
2023-01-23T19:39:00.573Z,47.70
2023-01-23T19:41:35.963Z,46.70
2023-01-23T19:44:04.516Z,47.72
2023-01-23T19:46:34.584Z,50.20
2023-01-23T19:49:03.921Z,51.08
2023-01-23T19:51:33.943Z,50.03
2023-01-23T19:54:04.073Z,51.17
2023-01-23T19:56:32.224Z,47.38
2023-01-23T19:59:00.572Z,52.10
2023-01-23T20:01:37.148Z,50.28
2023-01-23T20:04:06.917Z,51.90
2023-01-23T20:06:38.842Z,48.30
2023-01-23T20:09:08.621Z,55.03
2023-01-23T20:11:37.274Z,52.38
2023-01-23T20:14:05.565Z,54.22
2023-01-23T20:16:34.040Z,55.72
2023-01-23T20:19:02.427Z,57.53
2023-01-23T20:21:30.752Z,62.65
2023-01-23T20:23:59.194Z,56.58
2023-01-23T20:26:29.069Z,51.70
2023-01-23T20:28:58.164Z,51.60
2023-01-23T20:31:26.983Z,51.30
2023-01-23T20:33:55.480Z,52.78
2023-01-23T20:36:23.911Z,53.42
2023-01-23T20:38:52.823Z,56.15
2023-01-23T20:41:21.816Z,57.03
2023-01-23T20:43:51.447Z,54.05
2023-01-23T20:46:20.294Z,57.53
2023-01-23T20:48:48.954Z,56.15
2023-01-23T20:51:18.514Z,57.42
2023-01-23T20:53:47.274Z,58.38
2023-01-23T20:56:17.840Z,54.47
2023-01-23T20:59:05.083Z,58.03
2023-01-23T21:01:51.198Z,57.67
2023-01-23T21:04:19.845Z,57.13
2023-01-23T21:06:48.402Z,55.08
2023-01-23T21:09:17.186Z,55.72
2023-01-23T21:11:45.694Z,56.70
2023-01-23T21:14:14.962Z,55.08
2023-01-23T21:16:44.964Z,58.28
2023-01-23T21:19:13.294Z,53.00
2023-01-23T21:21:42.155Z,57.70
2023-01-23T21:24:10.431Z,60.72
2023-01-23T21:26:39.038Z,57.08
2023-01-23T21:29:08.571Z,54.22
2023-01-23T21:31:39.363Z,59.08
2023-01-23T21:34:11.357Z,53.55
2023-01-23T21:36:40.329Z,52.50
2023-01-23T21:39:10.378Z,51.80
2023-01-23T21:41:38.991Z,54.88
2023-01-23T21:44:07.949Z,53.83
2023-01-23T21:46:36.301Z,49.65
2023-01-23T21:49:04.798Z,51.30
2023-01-23T21:51:34.833Z,51.63
2023-01-23T21:54:03.345Z,51.72
2023-01-23T21:56:32.251Z,52.33
2023-01-23T21:59:00.756Z,50.78
2023-01-23T22:01:36.217Z,52.92
2023-01-23T22:04:07.344Z,50.75
2023-01-23T22:06:38.501Z,53.50
2023-01-23T22:09:07.536Z,52.20
2023-01-23T22:11:36.148Z,49.60
2023-01-23T22:14:04.639Z,54.17
2023-01-23T22:16:47.434Z,50.83
2023-01-23T22:19:17.141Z,52.25
2023-01-23T22:21:47.129Z,50.88
2023-01-23T22:24:15.731Z,47.67
2023-01-23T22:26:44.328Z,50.83
2023-01-23T22:29:13.256Z,46.42
2023-01-23T22:31:41.880Z,47.40
2023-01-23T22:34:10.875Z,49.80
2023-01-23T22:36:39.203Z,48.72
2023-01-23T22:39:09.129Z,49.03
2023-01-23T22:41:37.764Z,49.03
2023-01-23T22:44:06.043Z,49.00
2023-01-23T22:46:36.791Z,48.00
2023-01-23T22:49:05.672Z,50.83
2023-01-23T22:51:34.120Z,50.15
2023-01-23T22:54:03.183Z,49.70
2023-01-23T22:56:33.449Z,50.75
2023-01-23T22:59:02.210Z,46.78
2023-01-23T23:01:30.935Z,47.45
2023-01-23T23:04:00.335Z,49.17
2023-01-23T23:06:30.388Z,50.65
2023-01-23T23:08:58.722Z,48.45
2023-01-23T23:11:28.662Z,47.97
2023-01-23T23:13:59.221Z,50.40
2023-01-23T23:16:31.146Z,50.65
2023-01-23T23:19:01.726Z,52.97
2023-01-23T23:21:33.089Z,55.10
2023-01-23T23:24:02.283Z,48.58
2023-01-23T23:26:31.801Z,54.03
2023-01-23T23:29:02.238Z,52.45
2023-01-23T23:31:31.226Z,56.58
2023-01-23T23:33:59.567Z,56.70
2023-01-23T23:36:28.288Z,55.90
2023-01-23T23:38:56.618Z,53.42
2023-01-23T23:41:25.147Z,52.58
2023-01-23T23:43:53.915Z,57.05
2023-01-23T23:46:23.608Z,51.10
2023-01-23T23:48:51.846Z,54.10
2023-01-23T23:51:22.965Z,53.38
2023-01-23T23:53:51.554Z,51.47
2023-01-23T23:56:23.756Z,56.80
2023-01-23T23:58:52.236Z,59.78
